ACA233 LPMA-CYYT
Flight info
| Callsign | ACA233 |
|---|---|
| Flight time | N/A |
| Altitude | 40000 |
| Route | DEMZO DCT DOKAS/M084F400 DCT VMG/M074F270 H113 LM/M076F280 H125 LUKAL/M075F400 DCT 4440N DCT H4543 DCT H4647/N0492F400 DCT TIGOR DCT TEXED |
| Aircraft | B772/H-SDE2E3FGHIJ5LORVWXY/LB1D1 |
Departure
| Time | N/A |
|---|---|
| Airport | Cristiano Ronaldo International Airport (LPMA) |
Arrival
| Time | 2026-04-23 21:01 |
|---|---|
| Airport | St. John's International Airport (CYYT) |
| Time | Latitude | Longitude | Altitude | Speed | Heading |
|---|---|---|---|---|---|
| 2026-04-23 21:01 | 47.62421 | -52.75912 | 488 ft | 17 kts | 266° |
| 2026-04-23 21:01 | 47.62415 | -52.76102 | 493 ft | 19 kts | 268° |
| 2026-04-23 21:01 | 47.62403 | -52.76321 | 496 ft | 23 kts | 265° |
| 2026-04-23 21:02 | 47.62391 | -52.76585 | 495 ft | 28 kts | 267° |
| 2026-04-23 21:02 | 47.62383 | -52.76799 | 489 ft | 25 kts | 267° |
| 2026-04-23 21:02 | 47.62377 | -52.76911 | 485 ft | 4 kts | 333° |
| 2026-04-23 21:02 | 47.62390 | -52.76872 | 486 ft | 8 kts | 98° |
| 2026-04-23 21:03 | 47.62385 | -52.76730 | 491 ft | 19 kts | 88° |
| 2026-04-23 21:03 | 47.62398 | -52.76457 | 496 ft | 34 kts | 85° |
| 2026-04-23 21:03 | 47.62415 | -52.76049 | 492 ft | 29 kts | 86° |
| 2026-04-23 21:03 | 47.62423 | -52.75889 | 487 ft | 21 kts | 85° |
| 2026-04-23 21:04 | 47.62436 | -52.75595 | 475 ft | 34 kts | 85° |
| 2026-04-23 21:04 | 47.62456 | -52.75220 | 460 ft | 28 kts | 86° |
| 2026-04-23 21:04 | 47.62446 | -52.75035 | 455 ft | 17 kts | 120° |
| 2026-04-23 21:04 | 47.62349 | -52.74889 | 452 ft | 22 kts | 137° |
| 2026-04-23 21:05 | 47.62265 | -52.74777 | 451 ft | 10 kts | 138° |
| 2026-04-23 21:05 | 47.62191 | -52.74683 | 450 ft | 16 kts | 141° |
| 2026-04-23 21:05 | 47.62091 | -52.74557 | 449 ft | 21 kts | 137° |
| 2026-04-23 21:05 | 47.61966 | -52.74390 | 445 ft | 27 kts | 139° |
| 2026-04-23 21:06 | 47.61806 | -52.74189 | 441 ft | 33 kts | 141° |
| 2026-04-23 21:06 | 47.61734 | -52.74103 | 439 ft | 2 kts | 140° |
| 2026-04-23 21:06 | 47.61699 | -52.74061 | 438 ft | 10 kts | 141° |
| 2026-04-23 21:06 | 47.61686 | -52.74050 | 438 ft | 1 kts | 174° |
| 2026-04-23 21:07 | 47.61671 | -52.74063 | 439 ft | 3 kts | 234° |
| 2026-04-23 21:07 | 47.61654 | -52.74113 | 439 ft | 7 kts | 244° |
| 2026-04-23 21:07 | 47.61628 | -52.74186 | 443 ft | 7 kts | 241° |
| 2026-04-23 21:07 | 47.61591 | -52.74246 | 445 ft | 9 kts | 222° |
| 2026-04-23 21:08 | 47.61539 | -52.74318 | 448 ft | 10 kts | 224° |
| 2026-04-23 21:08 | 47.61508 | -52.74350 | 450 ft | 5 kts | 189° |
| 2026-04-23 21:08 | 47.61465 | -52.74315 | 450 ft | 9 kts | 141° |
| 2026-04-23 21:08 | 47.61432 | -52.74300 | 449 ft | 0 kts | 194° |
| 2026-04-23 21:09 | 47.61425 | -52.74305 | 449 ft | 1 kts | 206° |
| 2026-04-23 21:09 | 47.61404 | -52.74315 | 450 ft | 0 kts | 203° |
| 2026-04-23 21:09 | 47.61400 | -52.74318 | 450 ft | 0 kts | 205° |